sensor_id;sensor_type;location;lat;lon;timestamp;temperature;humidity
58993;DHT22;44782;0.000;0.000;2022-08-21T00:02:17;24.10;50.60
58993;DHT22;44782;0.000;0.000;2022-08-21T00:04:33;24.10;50.60
58993;DHT22;44782;0.000;0.000;2022-08-21T00:06:52;24.10;50.70
58993;DHT22;44782;0.000;0.000;2022-08-21T00:09:08;24.10;50.70
58993;DHT22;44782;0.000;0.000;2022-08-21T00:11:24;24.00;50.60
58993;DHT22;44782;0.000;0.000;2022-08-21T00:13:42;24.10;50.60
58993;DHT22;44782;0.000;0.000;2022-08-21T00:15:58;24.00;50.60
58993;DHT22;44782;0.000;0.000;2022-08-21T00:18:15;24.00;50.60
58993;DHT22;44782;0.000;0.000;2022-08-21T00:20:32;24.00;50.60
58993;DHT22;44782;0.000;0.000;2022-08-21T00:22:47;24.00;50.60
58993;DHT22;44782;0.000;0.000;2022-08-21T00:25:05;24.00;50.60
58993;DHT22;44782;0.000;0.000;2022-08-21T00:27:21;24.00;50.60
58993;DHT22;44782;0.000;0.000;2022-08-21T00:29:37;24.00;50.60
58993;DHT22;44782;0.000;0.000;2022-08-21T00:31:53;24.00;50.60
58993;DHT22;44782;0.000;0.000;2022-08-21T00:34:09;24.00;50.60
58993;DHT22;44782;0.000;0.000;2022-08-21T00:36:25;24.00;50.60
58993;DHT22;44782;0.000;0.000;2022-08-21T00:38:41;24.00;50.70
58993;DHT22;44782;0.000;0.000;2022-08-21T00:41:00;24.00;50.60
58993;DHT22;44782;0.000;0.000;2022-08-21T00:43:18;24.00;50.60
58993;DHT22;44782;0.000;0.000;2022-08-21T00:45:35;24.00;50.60
58993;DHT22;44782;0.000;0.000;2022-08-21T00:47:52;24.00;50.60
58993;DHT22;44782;0.000;0.000;2022-08-21T00:50:11;24.00;50.60
58993;DHT22;44782;0.000;0.000;2022-08-21T00:52:30;24.00;50.70
58993;DHT22;44782;0.000;0.000;2022-08-21T00:54:48;24.00;50.70
58993;DHT22;44782;0.000;0.000;2022-08-21T00:57:09;23.90;50.60
58993;DHT22;44782;0.000;0.000;2022-08-21T00:59:26;23.90;50.60
58993;DHT22;44782;0.000;0.000;2022-08-21T01:01:43;23.90;50.60
58993;DHT22;44782;0.000;0.000;2022-08-21T01:03:59;23.90;50.60
58993;DHT22;44782;0.000;0.000;2022-08-21T01:06:14;23.90;50.60
58993;DHT22;44782;0.000;0.000;2022-08-21T01:08:31;23.90;50.60
58993;DHT22;44782;0.000;0.000;2022-08-21T01:10:48;23.90;50.60
58993;DHT22;44782;0.000;0.000;2022-08-21T01:13:06;23.90;50.60
58993;DHT22;44782;0.000;0.000;2022-08-21T01:15:24;23.90;50.60
58993;DHT22;44782;0.000;0.000;2022-08-21T01:17:42;23.90;50.60
58993;DHT22;44782;0.000;0.000;2022-08-21T01:19:59;23.90;50.70
58993;DHT22;44782;0.000;0.000;2022-08-21T01:22:15;23.90;50.70
58993;DHT22;44782;0.000;0.000;2022-08-21T01:24:30;23.90;50.60
58993;DHT22;44782;0.000;0.000;2022-08-21T01:26:49;23.90;50.70
58993;DHT22;44782;0.000;0.000;2022-08-21T01:31:36;23.90;50.60
58993;DHT22;44782;0.000;0.000;2022-08-21T01:33:52;23.90;50.70
58993;DHT22;44782;0.000;0.000;2022-08-21T01:36:08;23.80;50.70
58993;DHT22;44782;0.000;0.000;2022-08-21T01:38:24;23.90;50.70
58993;DHT22;44782;0.000;0.000;2022-08-21T01:40:39;23.80;50.60
58993;DHT22;44782;0.000;0.000;2022-08-21T01:42:55;23.80;50.70
58993;DHT22;44782;0.000;0.000;2022-08-21T01:45:11;23.80;50.70
58993;DHT22;44782;0.000;0.000;2022-08-21T01:47:27;23.80;50.60
58993;DHT22;44782;0.000;0.000;2022-08-21T01:49:44;23.80;50.60
58993;DHT22;44782;0.000;0.000;2022-08-21T01:52:00;23.80;50.70
58993;DHT22;44782;0.000;0.000;2022-08-21T01:54:16;23.80;50.70
58993;DHT22;44782;0.000;0.000;2022-08-21T01:56:37;23.80;50.70
58993;DHT22;44782;0.000;0.000;2022-08-21T01:58:54;23.80;50.60
58993;DHT22;44782;0.000;0.000;2022-08-21T02:01:10;23.80;50.70
58993;DHT22;44782;0.000;0.000;2022-08-21T02:03:25;23.80;50.70
58993;DHT22;44782;0.000;0.000;2022-08-21T02:05:41;23.80;50.70
58993;DHT22;44782;0.000;0.000;2022-08-21T02:07:57;23.80;50.70
58993;DHT22;44782;0.000;0.000;2022-08-21T02:10:15;23.80;50.70
58993;DHT22;44782;0.000;0.000;2022-08-21T02:12:31;23.70;51.40
58993;DHT22;44782;0.000;0.000;2022-08-21T02:14:47;23.70;50.70
58993;DHT22;44782;0.000;0.000;2022-08-21T02:17:03;23.80;50.70
58993;DHT22;44782;0.000;0.000;2022-08-21T02:19:19;23.70;50.70
58993;DHT22;44782;0.000;0.000;2022-08-21T02:21:35;23.80;50.70
58993;DHT22;44782;0.000;0.000;2022-08-21T02:23:50;23.70;50.70
58993;DHT22;44782;0.000;0.000;2022-08-21T02:26:07;23.70;50.70
58993;DHT22;44782;0.000;0.000;2022-08-21T02:28:23;23.70;50.70
58993;DHT22;44782;0.000;0.000;2022-08-21T02:30:42;23.70;50.70
58993;DHT22;44782;0.000;0.000;2022-08-21T02:32:58;23.70;50.70
58993;DHT22;44782;0.000;0.000;2022-08-21T02:35:15;23.70;50.70
58993;DHT22;44782;0.000;0.000;2022-08-21T02:37:30;23.70;50.70
58993;DHT22;44782;0.000;0.000;2022-08-21T02:39:46;23.70;50.80
58993;DHT22;44782;0.000;0.000;2022-08-21T02:42:02;23.70;51.40
58993;DHT22;44782;0.000;0.000;2022-08-21T02:44:17;23.70;50.70
58993;DHT22;44782;0.000;0.000;2022-08-21T02:46:33;23.70;50.80
58993;DHT22;44782;0.000;0.000;2022-08-21T02:48:49;23.70;50.70
58993;DHT22;44782;0.000;0.000;2022-08-21T02:51:14;23.70;50.80
58993;DHT22;44782;0.000;0.000;2022-08-21T02:53:31;23.70;50.70
58993;DHT22;44782;0.000;0.000;2022-08-21T02:55:48;23.70;50.80
58993;DHT22;44782;0.000;0.000;2022-08-21T02:58:06;23.70;50.80
58993;DHT22;44782;0.000;0.000;2022-08-21T03:00:25;23.70;50.80
58993;DHT22;44782;0.000;0.000;2022-08-21T03:02:42;23.70;50.80
58993;DHT22;44782;0.000;0.000;2022-08-21T03:04:57;23.70;50.80
58993;DHT22;44782;0.000;0.000;2022-08-21T03:07:15;23.70;50.80
58993;DHT22;44782;0.000;0.000;2022-08-21T03:09:30;23.70;50.80
58993;DHT22;44782;0.000;0.000;2022-08-21T03:11:46;23.70;50.80
58993;DHT22;44782;0.000;0.000;2022-08-21T03:14:02;23.60;50.70
58993;DHT22;44782;0.000;0.000;2022-08-21T03:16:18;23.60;50.70
58993;DHT22;44782;0.000;0.000;2022-08-21T03:18:35;23.60;50.80
58993;DHT22;44782;0.000;0.000;2022-08-21T03:20:51;23.60;50.70
58993;DHT22;44782;0.000;0.000;2022-08-21T03:23:06;23.60;50.70
58993;DHT22;44782;0.000;0.000;2022-08-21T03:25:23;23.60;50.70
58993;DHT22;44782;0.000;0.000;2022-08-21T03:27:39;23.60;50.80
58993;DHT22;44782;0.000;0.000;2022-08-21T03:29:55;23.60;50.80
58993;DHT22;44782;0.000;0.000;2022-08-21T03:32:11;23.60;50.80
58993;DHT22;44782;0.000;0.000;2022-08-21T03:34:26;23.60;50.80
58993;DHT22;44782;0.000;0.000;2022-08-21T03:36:42;23.60;50.80
58993;DHT22;44782;0.000;0.000;2022-08-21T03:38:58;23.60;50.80
58993;DHT22;44782;0.000;0.000;2022-08-21T03:41:14;23.60;50.80
58993;DHT22;44782;0.000;0.000;2022-08-21T03:43:30;23.60;50.80
58993;DHT22;44782;0.000;0.000;2022-08-21T03:45:45;23.60;50.80
58993;DHT22;44782;0.000;0.000;2022-08-21T03:48:03;23.50;50.80
58993;DHT22;44782;0.000;0.000;2022-08-21T03:50:19;23.50;50.70
58993;DHT22;44782;0.000;0.000;2022-08-21T03:52:35;23.50;50.70
58993;DHT22;44782;0.000;0.000;2022-08-21T03:54:51;23.50;50.70
58993;DHT22;44782;0.000;0.000;2022-08-21T03:57:07;23.50;50.70
58993;DHT22;44782;0.000;0.000;2022-08-21T03:59:24;23.50;50.70
58993;DHT22;44782;0.000;0.000;2022-08-21T04:01:51;23.50;50.80
58993;DHT22;44782;0.000;0.000;2022-08-21T04:04:07;23.50;50.70
58993;DHT22;44782;0.000;0.000;2022-08-21T04:06:23;23.50;50.80
58993;DHT22;44782;0.000;0.000;2022-08-21T04:08:38;23.50;50.90
58993;DHT22;44782;0.000;0.000;2022-08-21T04:10:57;23.50;50.80
58993;DHT22;44782;0.000;0.000;2022-08-21T04:13:13;23.50;50.80
58993;DHT22;44782;0.000;0.000;2022-08-21T04:15:30;23.50;50.80
58993;DHT22;44782;0.000;0.000;2022-08-21T04:17:45;23.50;50.80
58993;DHT22;44782;0.000;0.000;2022-08-21T04:20:01;23.40;50.80
58993;DHT22;44782;0.000;0.000;2022-08-21T04:22:17;23.40;50.70
58993;DHT22;44782;0.000;0.000;2022-08-21T04:24:32;23.40;50.70
58993;DHT22;44782;0.000;0.000;2022-08-21T04:26:48;23.40;50.70
58993;DHT22;44782;0.000;0.000;2022-08-21T04:29:04;23.40;50.70
58993;DHT22;44782;0.000;0.000;2022-08-21T04:31:21;23.40;50.70
58993;DHT22;44782;0.000;0.000;2022-08-21T04:33:37;23.40;50.70
58993;DHT22;44782;0.000;0.000;2022-08-21T04:35:52;23.40;51.40
58993;DHT22;44782;0.000;0.000;2022-08-21T04:38:08;23.40;50.80
58993;DHT22;44782;0.000;0.000;2022-08-21T04:40:26;23.40;50.70
58993;DHT22;44782;0.000;0.000;2022-08-21T04:42:44;23.40;50.70
58993;DHT22;44782;0.000;0.000;2022-08-21T04:45:00;23.40;50.70
58993;DHT22;44782;0.000;0.000;2022-08-21T04:47:16;23.40;50.70
58993;DHT22;44782;0.000;0.000;2022-08-21T04:49:32;23.40;50.70
58993;DHT22;44782;0.000;0.000;2022-08-21T04:51:48;23.40;50.80
58993;DHT22;44782;0.000;0.000;2022-08-21T04:54:12;23.40;50.80
58993;DHT22;44782;0.000;0.000;2022-08-21T04:56:33;23.40;50.70
58993;DHT22;44782;0.000;0.000;2022-08-21T04:58:53;23.40;50.80
58993;DHT22;44782;0.000;0.000;2022-08-21T05:01:16;23.40;50.80
58993;DHT22;44782;0.000;0.000;2022-08-21T05:03:33;23.40;50.80
58993;DHT22;44782;0.000;0.000;2022-08-21T05:05:49;23.40;50.80
58993;DHT22;44782;0.000;0.000;2022-08-21T05:08:07;23.30;50.70
58993;DHT22;44782;0.000;0.000;2022-08-21T05:10:23;23.30;50.80
58993;DHT22;44782;0.000;0.000;2022-08-21T05:12:40;23.30;50.80
58993;DHT22;44782;0.000;0.000;2022-08-21T05:14:57;23.30;50.80
58993;DHT22;44782;0.000;0.000;2022-08-21T05:17:13;23.30;50.80
58993;DHT22;44782;0.000;0.000;2022-08-21T05:19:28;23.30;50.90
58993;DHT22;44782;0.000;0.000;2022-08-21T05:21:45;23.30;50.80
58993;DHT22;44782;0.000;0.000;2022-08-21T05:24:03;23.30;50.80
58993;DHT22;44782;0.000;0.000;2022-08-21T05:26:19;23.30;50.80
58993;DHT22;44782;0.000;0.000;2022-08-21T05:28:34;23.30;50.80
58993;DHT22;44782;0.000;0.000;2022-08-21T05:30:50;23.30;50.80
58993;DHT22;44782;0.000;0.000;2022-08-21T05:33:06;23.30;50.80
58993;DHT22;44782;0.000;0.000;2022-08-21T05:35:22;23.30;50.50
58993;DHT22;44782;0.000;0.000;2022-08-21T05:39:54;23.20;48.70
58993;DHT22;44782;0.000;0.000;2022-08-21T05:42:09;23.20;49.00
58993;DHT22;44782;0.000;0.000;2022-08-21T05:44:25;23.10;48.80
58993;DHT22;44782;0.000;0.000;2022-08-21T05:46:41;23.10;48.60
58993;DHT22;44782;0.000;0.000;2022-08-21T05:48:56;23.10;48.50
58993;DHT22;44782;0.000;0.000;2022-08-21T05:51:14;23.10;49.00
58993;DHT22;44782;0.000;0.000;2022-08-21T05:53:30;23.10;48.10
58993;DHT22;44782;0.000;0.000;2022-08-21T05:55:46;23.00;48.00
58993;DHT22;44782;0.000;0.000;2022-08-21T05:58:03;23.00;47.90
58993;DHT22;44782;0.000;0.000;2022-08-21T06:00:19;23.00;47.70
58993;DHT22;44782;0.000;0.000;2022-08-21T06:02:34;22.90;47.60
58993;DHT22;44782;0.000;0.000;2022-08-21T06:04:50;22.90;47.60
58993;DHT22;44782;0.000;0.000;2022-08-21T06:07:06;22.90;47.50
58993;DHT22;44782;0.000;0.000;2022-08-21T06:09:22;22.90;47.60
58993;DHT22;44782;0.000;0.000;2022-08-21T06:11:37;22.90;47.70
58993;DHT22;44782;0.000;0.000;2022-08-21T06:13:53;22.90;47.90
58993;DHT22;44782;0.000;0.000;2022-08-21T06:16:11;22.90;48.00
58993;DHT22;44782;0.000;0.000;2022-08-21T06:18:27;22.90;48.00
58993;DHT22;44782;0.000;0.000;2022-08-21T06:20:44;22.90;48.20
58993;DHT22;44782;0.000;0.000;2022-08-21T06:23:00;22.90;48.10
58993;DHT22;44782;0.000;0.000;2022-08-21T06:25:16;22.90;48.20
58993;DHT22;44782;0.000;0.000;2022-08-21T06:27:32;22.90;48.30
58993;DHT22;44782;0.000;0.000;2022-08-21T06:29:47;22.90;48.30
58993;DHT22;44782;0.000;0.000;2022-08-21T06:32:03;23.00;48.50
58993;DHT22;44782;0.000;0.000;2022-08-21T06:34:19;23.00;48.60
58993;DHT22;44782;0.000;0.000;2022-08-21T06:36:35;23.00;48.60
58993;DHT22;44782;0.000;0.000;2022-08-21T06:38:50;23.00;48.60
58993;DHT22;44782;0.000;0.000;2022-08-21T06:41:07;23.00;48.70
58993;DHT22;44782;0.000;0.000;2022-08-21T06:43:23;23.00;48.80
58993;DHT22;44782;0.000;0.000;2022-08-21T06:45:38;23.00;48.80
58993;DHT22;44782;0.000;0.000;2022-08-21T06:47:54;23.00;48.80
58993;DHT22;44782;0.000;0.000;2022-08-21T06:50:10;23.00;48.90
58993;DHT22;44782;0.000;0.000;2022-08-21T06:52:26;23.00;49.00
58993;DHT22;44782;0.000;0.000;2022-08-21T06:54:41;23.00;49.00
58993;DHT22;44782;0.000;0.000;2022-08-21T06:56:57;23.10;49.10
58993;DHT22;44782;0.000;0.000;2022-08-21T06:59:13;23.10;49.20
58993;DHT22;44782;0.000;0.000;2022-08-21T07:01:29;23.10;49.20
58993;DHT22;44782;0.000;0.000;2022-08-21T07:03:44;23.10;49.30
58993;DHT22;44782;0.000;0.000;2022-08-21T07:06:00;23.10;49.30
58993;DHT22;44782;0.000;0.000;2022-08-21T07:08:16;23.10;49.30
58993;DHT22;44782;0.000;0.000;2022-08-21T07:10:31;23.10;49.40
58993;DHT22;44782;0.000;0.000;2022-08-21T07:12:47;23.10;49.40
58993;DHT22;44782;0.000;0.000;2022-08-21T07:15:03;23.10;49.40
58993;DHT22;44782;0.000;0.000;2022-08-21T07:17:19;23.10;49.50
58993;DHT22;44782;0.000;0.000;2022-08-21T07:19:34;23.20;49.50
58993;DHT22;44782;0.000;0.000;2022-08-21T07:21:50;23.20;49.60
58993;DHT22;44782;0.000;0.000;2022-08-21T07:24:07;23.20;49.60
58993;DHT22;44782;0.000;0.000;2022-08-21T07:26:23;23.20;49.60
58993;DHT22;44782;0.000;0.000;2022-08-21T07:28:39;23.20;49.60
58993;DHT22;44782;0.000;0.000;2022-08-21T07:30:58;23.20;49.60
58993;DHT22;44782;0.000;0.000;2022-08-21T07:33:13;23.20;49.60
58993;DHT22;44782;0.000;0.000;2022-08-21T07:35:29;23.20;49.70
58993;DHT22;44782;0.000;0.000;2022-08-21T07:37:46;23.20;49.70
58993;DHT22;44782;0.000;0.000;2022-08-21T07:40:02;23.20;49.70
58993;DHT22;44782;0.000;0.000;2022-08-21T07:42:18;23.30;49.70
58993;DHT22;44782;0.000;0.000;2022-08-21T07:44:34;23.30;49.70
58993;DHT22;44782;0.000;0.000;2022-08-21T07:46:50;23.20;49.70
58993;DHT22;44782;0.000;0.000;2022-08-21T07:49:05;23.30;49.80
58993;DHT22;44782;0.000;0.000;2022-08-21T07:51:25;23.30;49.80
58993;DHT22;44782;0.000;0.000;2022-08-21T07:53:46;23.30;49.80
58993;DHT22;44782;0.000;0.000;2022-08-21T07:56:04;23.30;49.90
58993;DHT22;44782;0.000;0.000;2022-08-21T07:58:20;23.30;49.90
58993;DHT22;44782;0.000;0.000;2022-08-21T08:00:35;23.30;49.90
58993;DHT22;44782;0.000;0.000;2022-08-21T08:02:52;23.30;50.00
58993;DHT22;44782;0.000;0.000;2022-08-21T08:05:10;23.30;49.90
58993;DHT22;44782;0.000;0.000;2022-08-21T08:07:26;23.30;49.80
58993;DHT22;44782;0.000;0.000;2022-08-21T08:09:42;23.40;49.80
58993;DHT22;44782;0.000;0.000;2022-08-21T08:11:58;23.30;50.40
58993;DHT22;44782;0.000;0.000;2022-08-21T08:14:14;23.40;49.90
58993;DHT22;44782;0.000;0.000;2022-08-21T08:16:30;23.40;50.00
58993;DHT22;44782;0.000;0.000;2022-08-21T08:18:46;23.40;50.00
58993;DHT22;44782;0.000;0.000;2022-08-21T08:21:03;23.40;50.10
58993;DHT22;44782;0.000;0.000;2022-08-21T08:23:20;23.30;50.10
58993;DHT22;44782;0.000;0.000;2022-08-21T08:25:35;23.30;50.10
58993;DHT22;44782;0.000;0.000;2022-08-21T08:27:51;23.30;50.30
58993;DHT22;44782;0.000;0.000;2022-08-21T08:30:09;23.30;50.20
58993;DHT22;44782;0.000;0.000;2022-08-21T08:32:26;23.30;50.10
58993;DHT22;44782;0.000;0.000;2022-08-21T08:34:41;23.30;50.10
58993;DHT22;44782;0.000;0.000;2022-08-21T08:36:57;23.40;50.20
58993;DHT22;44782;0.000;0.000;2022-08-21T08:39:16;23.30;50.10
58993;DHT22;44782;0.000;0.000;2022-08-21T08:41:32;23.40;50.20
58993;DHT22;44782;0.000;0.000;2022-08-21T08:43:59;23.40;50.20
58993;DHT22;44782;0.000;0.000;2022-08-21T08:46:19;23.40;50.10
58993;DHT22;44782;0.000;0.000;2022-08-21T08:48:46;23.30;50.20
58993;DHT22;44782;0.000;0.000;2022-08-21T08:51:07;23.40;50.00
58993;DHT22;44782;0.000;0.000;2022-08-21T08:53:32;23.30;50.10
58993;DHT22;44782;0.000;0.000;2022-08-21T08:55:51;23.30;50.00
58993;DHT22;44782;0.000;0.000;2022-08-21T08:58:27;23.30;50.10
58993;DHT22;44782;0.000;0.000;2022-08-21T09:00:47;23.30;50.10
58993;DHT22;44782;0.000;0.000;2022-08-21T09:03:04;23.30;50.10
58993;DHT22;44782;0.000;0.000;2022-08-21T09:05:50;23.30;50.10
58993;DHT22;44782;0.000;0.000;2022-08-21T09:11:04;23.30;50.00
58993;DHT22;44782;0.000;0.000;2022-08-21T09:14:11;23.30;50.20
58993;DHT22;44782;0.000;0.000;2022-08-21T09:26:47;23.40;50.10
58993;DHT22;44782;0.000;0.000;2022-08-21T09:28:59;23.30;50.20
58993;DHT22;44782;0.000;0.000;2022-08-21T09:33:37;23.40;50.20
58993;DHT22;44782;0.000;0.000;2022-08-21T09:35:55;23.40;50.30
58993;DHT22;44782;0.000;0.000;2022-08-21T09:38:29;23.30;50.20
58993;DHT22;44782;0.000;0.000;2022-08-21T09:40:47;23.40;50.20
58993;DHT22;44782;0.000;0.000;2022-08-21T09:45:30;23.30;50.30
58993;DHT22;44782;0.000;0.000;2022-08-21T09:47:45;23.30;50.30
58993;DHT22;44782;0.000;0.000;2022-08-21T09:50:21;23.30;50.30
58993;DHT22;44782;0.000;0.000;2022-08-21T09:52:48;23.40;50.30
58993;DHT22;44782;0.000;0.000;2022-08-21T09:55:04;23.40;50.30
58993;DHT22;44782;0.000;0.000;2022-08-21T09:57:40;23.30;50.30
58993;DHT22;44782;0.000;0.000;2022-08-21T10:00:20;23.30;50.30
58993;DHT22;44782;0.000;0.000;2022-08-21T10:02:39;23.40;50.30
58993;DHT22;44782;0.000;0.000;2022-08-21T10:04:58;23.30;50.30
58993;DHT22;44782;0.000;0.000;2022-08-21T10:07:14;23.40;50.40
58993;DHT22;44782;0.000;0.000;2022-08-21T10:09:30;23.40;50.30
58993;DHT22;44782;0.000;0.000;2022-08-21T10:12:22;23.40;50.30
58993;DHT22;44782;0.000;0.000;2022-08-21T10:19:48;23.40;50.30
58993;DHT22;44782;0.000;0.000;2022-08-21T10:22:29;23.40;50.20
58993;DHT22;44782;0.000;0.000;2022-08-21T10:25:00;23.40;50.20
58993;DHT22;44782;0.000;0.000;2022-08-21T10:30:02;23.40;50.30
58993;DHT22;44782;0.000;0.000;2022-08-21T10:32:37;23.40;50.20
58993;DHT22;44782;0.000;0.000;2022-08-21T10:35:10;23.40;50.30
58993;DHT22;44782;0.000;0.000;2022-08-21T10:37:48;23.40;50.30
58993;DHT22;44782;0.000;0.000;2022-08-21T10:40:21;23.40;50.30
58993;DHT22;44782;0.000;0.000;2022-08-21T10:47:47;23.40;50.40
58993;DHT22;44782;0.000;0.000;2022-08-21T10:55:27;23.30;50.40
58993;DHT22;44782;0.000;0.000;2022-08-21T10:57:59;23.40;50.50
58993;DHT22;44782;0.000;0.000;2022-08-21T11:00:19;23.40;50.50
58993;DHT22;44782;0.000;0.000;2022-08-21T11:02:44;23.40;50.60
58993;DHT22;44782;0.000;0.000;2022-08-21T11:05:07;23.40;50.50
58993;DHT22;44782;0.000;0.000;2022-08-21T11:09:51;23.40;50.50
58993;DHT22;44782;0.000;0.000;2022-08-21T11:17:12;23.40;50.40
58993;DHT22;44782;0.000;0.000;2022-08-21T11:19:31;23.40;50.40
58993;DHT22;44782;0.000;0.000;2022-08-21T11:22:00;23.40;50.50
58993;DHT22;44782;0.000;0.000;2022-08-21T11:24:42;23.40;50.40
58993;DHT22;44782;0.000;0.000;2022-08-21T11:30:10;23.40;50.40
58993;DHT22;44782;0.000;0.000;2022-08-21T11:39:43;23.40;50.40
58993;DHT22;44782;0.000;0.000;2022-08-21T11:44:58;23.40;50.30
58993;DHT22;44782;0.000;0.000;2022-08-21T11:50:16;23.40;50.30
58993;DHT22;44782;0.000;0.000;2022-08-21T11:52:40;23.40;50.40
58993;DHT22;44782;0.000;0.000;2022-08-21T11:55:03;23.40;50.30
58993;DHT22;44782;0.000;0.000;2022-08-21T11:57:29;23.40;50.30
58993;DHT22;44782;0.000;0.000;2022-08-21T12:00:07;23.40;50.20
58993;DHT22;44782;0.000;0.000;2022-08-21T12:02:33;23.40;50.10
58993;DHT22;44782;0.000;0.000;2022-08-21T12:04:56;23.40;50.20
58993;DHT22;44782;0.000;0.000;2022-08-21T12:07:28;23.40;50.20
58993;DHT22;44782;0.000;0.000;2022-08-21T12:09:55;23.40;50.20
58993;DHT22;44782;0.000;0.000;2022-08-21T12:14:45;23.40;50.20
58993;DHT22;44782;0.000;0.000;2022-08-21T12:17:05;23.40;50.40
58993;DHT22;44782;0.000;0.000;2022-08-21T12:21:58;23.50;50.50
58993;DHT22;44782;0.000;0.000;2022-08-21T12:31:31;23.50;50.70
58993;DHT22;44782;0.000;0.000;2022-08-21T12:33:55;23.50;50.70
58993;DHT22;44782;0.000;0.000;2022-08-21T12:36:17;23.50;50.70
58993;DHT22;44782;0.000;0.000;2022-08-21T12:38:49;23.50;50.70
58993;DHT22;44782;0.000;0.000;2022-08-21T12:41:14;23.50;50.70
58993;DHT22;44782;0.000;0.000;2022-08-21T12:43:39;23.50;50.90
58993;DHT22;44782;0.000;0.000;2022-08-21T12:45:56;23.60;50.80
58993;DHT22;44782;0.000;0.000;2022-08-21T12:48:23;23.50;50.80
58993;DHT22;44782;0.000;0.000;2022-08-21T12:50:43;23.60;50.80
58993;DHT22;44782;0.000;0.000;2022-08-21T12:55:30;23.60;50.90
58993;DHT22;44782;0.000;0.000;2022-08-21T12:57:46;23.60;50.80
58993;DHT22;44782;0.000;0.000;2022-08-21T13:00:06;23.60;50.60
58993;DHT22;44782;0.000;0.000;2022-08-21T13:02:37;23.60;50.80
58993;DHT22;44782;0.000;0.000;2022-08-21T13:04:56;23.60;50.60
58993;DHT22;44782;0.000;0.000;2022-08-21T13:07:25;23.60;51.30
58993;DHT22;44782;0.000;0.000;2022-08-21T13:09:57;23.60;50.60
58993;DHT22;44782;0.000;0.000;2022-08-21T13:12:16;23.60;50.60
58993;DHT22;44782;0.000;0.000;2022-08-21T13:14:41;23.60;50.60
58993;DHT22;44782;0.000;0.000;2022-08-21T13:16:59;23.60;50.40
58993;DHT22;44782;0.000;0.000;2022-08-21T13:19:17;23.60;50.50
58993;DHT22;44782;0.000;0.000;2022-08-21T13:21:39;23.60;50.40
58993;DHT22;44782;0.000;0.000;2022-08-21T13:26:32;23.60;50.00
58993;DHT22;44782;0.000;0.000;2022-08-21T13:28:49;23.60;50.10
58993;DHT22;44782;0.000;0.000;2022-08-21T13:31:08;23.70;50.10
58993;DHT22;44782;0.000;0.000;2022-08-21T13:33:25;23.70;49.90
58993;DHT22;44782;0.000;0.000;2022-08-21T13:38:05;23.70;49.70
58993;DHT22;44782;0.000;0.000;2022-08-21T13:40:32;23.70;49.80
58993;DHT22;44782;0.000;0.000;2022-08-21T13:42:48;23.70;49.60
58993;DHT22;44782;0.000;0.000;2022-08-21T13:45:04;23.70;49.70
58993;DHT22;44782;0.000;0.000;2022-08-21T13:47:26;23.70;49.70
58993;DHT22;44782;0.000;0.000;2022-08-21T13:49:50;23.70;49.70
58993;DHT22;44782;0.000;0.000;2022-08-21T13:54:39;23.70;49.60
58993;DHT22;44782;0.000;0.000;2022-08-21T13:56:55;23.70;49.70
58993;DHT22;44782;0.000;0.000;2022-08-21T13:59:11;23.70;49.70
58993;DHT22;44782;0.000;0.000;2022-08-21T14:01:34;23.70;49.70
58993;DHT22;44782;0.000;0.000;2022-08-21T14:03:54;23.70;49.70
58993;DHT22;44782;0.000;0.000;2022-08-21T14:06:20;23.70;49.80
58993;DHT22;44782;0.000;0.000;2022-08-21T14:08:38;23.70;49.80
58993;DHT22;44782;0.000;0.000;2022-08-21T14:10:56;23.70;50.00
58993;DHT22;44782;0.000;0.000;2022-08-21T14:13:42;23.70;50.10
58993;DHT22;44782;0.000;0.000;2022-08-21T14:16:01;23.70;50.00
58993;DHT22;44782;0.000;0.000;2022-08-21T14:18:18;23.70;50.20
58993;DHT22;44782;0.000;0.000;2022-08-21T14:20:36;23.70;50.30
58993;DHT22;44782;0.000;0.000;2022-08-21T14:22:52;23.70;50.30
58993;DHT22;44782;0.000;0.000;2022-08-21T14:25:14;23.70;50.50
58993;DHT22;44782;0.000;0.000;2022-08-21T14:27:33;23.80;50.60
58993;DHT22;44782;0.000;0.000;2022-08-21T14:29:49;23.70;50.60
58993;DHT22;44782;0.000;0.000;2022-08-21T14:32:18;23.70;50.60
58993;DHT22;44782;0.000;0.000;2022-08-21T14:34:35;23.80;50.70
58993;DHT22;44782;0.000;0.000;2022-08-21T14:36:51;23.70;50.70
58993;DHT22;44782;0.000;0.000;2022-08-21T14:39:06;23.70;50.70
58993;DHT22;44782;0.000;0.000;2022-08-21T14:41:25;23.80;50.90
58993;DHT22;44782;0.000;0.000;2022-08-21T14:43:46;23.80;50.90
58993;DHT22;44782;0.000;0.000;2022-08-21T14:46:02;23.80;50.90
58993;DHT22;44782;0.000;0.000;2022-08-21T14:48:18;23.80;51.00
58993;DHT22;44782;0.000;0.000;2022-08-21T14:50:33;23.70;51.00
58993;DHT22;44782;0.000;0.000;2022-08-21T14:52:49;23.70;51.00
58993;DHT22;44782;0.000;0.000;2022-08-21T14:55:06;23.70;51.10
58993;DHT22;44782;0.000;0.000;2022-08-21T14:57:30;23.80;51.10
58993;DHT22;44782;0.000;0.000;2022-08-21T14:59:46;23.80;51.10
58993;DHT22;44782;0.000;0.000;2022-08-21T15:02:02;23.80;51.80
58993;DHT22;44782;0.000;0.000;2022-08-21T15:04:21;23.80;51.10
58993;DHT22;44782;0.000;0.000;2022-08-21T15:06:37;23.80;51.20
58993;DHT22;44782;0.000;0.000;2022-08-21T15:08:53;23.80;51.20
58993;DHT22;44782;0.000;0.000;2022-08-21T15:11:11;23.80;51.30
58993;DHT22;44782;0.000;0.000;2022-08-21T15:13:28;23.80;52.00
58993;DHT22;44782;0.000;0.000;2022-08-21T15:15:46;23.80;51.40
58993;DHT22;44782;0.000;0.000;2022-08-21T15:18:02;23.80;51.40
58993;DHT22;44782;0.000;0.000;2022-08-21T15:20:18;23.80;51.40
58993;DHT22;44782;0.000;0.000;2022-08-21T15:22:34;23.80;51.40
58993;DHT22;44782;0.000;0.000;2022-08-21T15:24:49;23.80;51.40
58993;DHT22;44782;0.000;0.000;2022-08-21T15:27:07;23.80;51.50
58993;DHT22;44782;0.000;0.000;2022-08-21T15:29:23;23.80;51.40
58993;DHT22;44782;0.000;0.000;2022-08-21T15:31:54;23.80;51.50
58993;DHT22;44782;0.000;0.000;2022-08-21T15:34:11;23.90;51.60
58993;DHT22;44782;0.000;0.000;2022-08-21T15:36:26;23.90;51.60
58993;DHT22;44782;0.000;0.000;2022-08-21T15:38:42;23.80;51.50
58993;DHT22;44782;0.000;0.000;2022-08-21T15:40:59;23.80;51.50
58993;DHT22;44782;0.000;0.000;2022-08-21T15:43:28;23.80;51.60
58993;DHT22;44782;0.000;0.000;2022-08-21T15:45:45;23.90;51.70
58993;DHT22;44782;0.000;0.000;2022-08-21T15:48:01;23.80;51.70
58993;DHT22;44782;0.000;0.000;2022-08-21T15:50:17;23.80;51.80
58993;DHT22;44782;0.000;0.000;2022-08-21T15:52:33;23.90;51.80
58993;DHT22;44782;0.000;0.000;2022-08-21T15:54:50;23.90;51.90
58993;DHT22;44782;0.000;0.000;2022-08-21T15:57:05;23.90;51.80
58993;DHT22;44782;0.000;0.000;2022-08-21T15:59:21;23.90;51.90
58993;DHT22;44782;0.000;0.000;2022-08-21T16:01:37;23.90;51.90
58993;DHT22;44782;0.000;0.000;2022-08-21T16:03:54;23.90;52.00
58993;DHT22;44782;0.000;0.000;2022-08-21T16:06:10;23.90;52.00
58993;DHT22;44782;0.000;0.000;2022-08-21T16:08:26;23.90;51.90
58993;DHT22;44782;0.000;0.000;2022-08-21T16:10:41;23.90;52.10
58993;DHT22;44782;0.000;0.000;2022-08-21T16:13:01;23.90;52.00
58993;DHT22;44782;0.000;0.000;2022-08-21T16:15:18;23.90;52.00
58993;DHT22;44782;0.000;0.000;2022-08-21T16:17:35;23.90;52.00